Terminal Aerodrome Forecast
Issued by NWS

Home | Current Version | Previous Version | Text Only | Print | Product List | Glossary On
Versions: 1 2 3 4 5 6 7 8 9 10 11 12 13 14 15 16 17 18 19 20
328
FTUS43 KGRR 061731
TAFLAN
TAF
KLAN 061731Z 0618/0718 26006KT P6SM FEW250
     FM070100 19005KT P6SM SCT250
     FM071200 24007KT P6SM -SHRA BKN090
     FM071500 27010KT P6SM -SHRA BKN025=

USA.gov is the U.S. government's official web portal to all federal, state and local government web resources and services.